sensor_id;sensor_type;location;lat;lon;timestamp;temperature;humidity
2539;DHT22;1280;49.760;9.664;2023-09-19T00:00:45;20.00;76.20
2539;DHT22;1280;49.760;9.664;2023-09-19T00:03:14;20.00;76.20
2539;DHT22;1280;49.760;9.664;2023-09-19T00:05:43;20.00;76.20
2539;DHT22;1280;49.760;9.664;2023-09-19T00:08:12;20.00;76.30
2539;DHT22;1280;49.760;9.664;2023-09-19T00:10:43;20.00;76.30
2539;DHT22;1280;49.760;9.664;2023-09-19T00:13:12;20.00;76.30
2539;DHT22;1280;49.760;9.664;2023-09-19T00:15:45;19.90;76.40
2539;DHT22;1280;49.760;9.664;2023-09-19T00:18:17;19.90;76.50
2539;DHT22;1280;49.760;9.664;2023-09-19T00:20:47;19.90;76.50
2539;DHT22;1280;49.760;9.664;2023-09-19T00:23:15;19.90;76.50
2539;DHT22;1280;49.760;9.664;2023-09-19T00:25:44;19.90;76.50
2539;DHT22;1280;49.760;9.664;2023-09-19T00:28:15;19.90;76.60
2539;DHT22;1280;49.760;9.664;2023-09-19T00:30:44;19.90;76.70
2539;DHT22;1280;49.760;9.664;2023-09-19T00:33:14;19.90;76.70
2539;DHT22;1280;49.760;9.664;2023-09-19T00:35:47;19.90;76.70
2539;DHT22;1280;49.760;9.664;2023-09-19T00:38:15;19.90;76.80
2539;DHT22;1280;49.760;9.664;2023-09-19T00:40:46;19.90;76.80
2539;DHT22;1280;49.760;9.664;2023-09-19T00:43:16;20.00;76.80
2539;DHT22;1280;49.760;9.664;2023-09-19T00:45:48;20.00;76.80
2539;DHT22;1280;49.760;9.664;2023-09-19T00:48:16;19.90;76.80
2539;DHT22;1280;49.760;9.664;2023-09-19T00:50:47;19.90;76.90
2539;DHT22;1280;49.760;9.664;2023-09-19T00:53:19;19.90;76.90
2539;DHT22;1280;49.760;9.664;2023-09-19T00:55:48;19.90;76.90
2539;DHT22;1280;49.760;9.664;2023-09-19T00:58:18;20.00;77.00
2539;DHT22;1280;49.760;9.664;2023-09-19T01:00:48;20.00;76.90
2539;DHT22;1280;49.760;9.664;2023-09-19T01:03:17;20.00;76.90
2539;DHT22;1280;49.760;9.664;2023-09-19T01:05:46;20.00;76.90
2539;DHT22;1280;49.760;9.664;2023-09-19T01:08:14;19.90;76.90
2539;DHT22;1280;49.760;9.664;2023-09-19T01:10:49;19.90;77.00
2539;DHT22;1280;49.760;9.664;2023-09-19T01:13:26;19.90;77.00
2539;DHT22;1280;49.760;9.664;2023-09-19T01:16:06;19.80;77.10
2539;DHT22;1280;49.760;9.664;2023-09-19T01:18:47;19.80;77.20
2539;DHT22;1280;49.760;9.664;2023-09-19T01:21:22;19.80;77.30
2539;DHT22;1280;49.760;9.664;2023-09-19T01:24:31;19.80;77.30
2539;DHT22;1280;49.760;9.664;2023-09-19T01:27:25;19.80;77.40
2539;DHT22;1280;49.760;9.664;2023-09-19T01:30:09;19.80;77.40
2539;DHT22;1280;49.760;9.664;2023-09-19T01:32:39;19.80;77.50
2539;DHT22;1280;49.760;9.664;2023-09-19T01:35:08;19.80;77.50
2539;DHT22;1280;49.760;9.664;2023-09-19T01:37:40;19.80;77.60
2539;DHT22;1280;49.760;9.664;2023-09-19T01:40:12;19.80;77.60
2539;DHT22;1280;49.760;9.664;2023-09-19T01:42:48;19.80;77.60
2539;DHT22;1280;49.760;9.664;2023-09-19T01:45:26;19.80;77.70
2539;DHT22;1280;49.760;9.664;2023-09-19T01:48:08;19.70;77.80
2539;DHT22;1280;49.760;9.664;2023-09-19T01:50:43;19.80;77.90
2539;DHT22;1280;49.760;9.664;2023-09-19T01:53:18;19.80;78.00
2539;DHT22;1280;49.760;9.664;2023-09-19T01:55:50;19.70;78.00
2539;DHT22;1280;49.760;9.664;2023-09-19T01:58:21;19.80;78.10
2539;DHT22;1280;49.760;9.664;2023-09-19T02:00:58;19.80;78.10
2539;DHT22;1280;49.760;9.664;2023-09-19T02:03:28;19.80;78.20
2539;DHT22;1280;49.760;9.664;2023-09-19T02:05:57;19.80;78.20
2539;DHT22;1280;49.760;9.664;2023-09-19T02:08:26;19.80;78.30
2539;DHT22;1280;49.760;9.664;2023-09-19T02:10:54;19.80;78.30
2539;DHT22;1280;49.760;9.664;2023-09-19T02:13:22;19.80;78.40
2539;DHT22;1280;49.760;9.664;2023-09-19T02:15:53;19.80;78.40
2539;DHT22;1280;49.760;9.664;2023-09-19T02:18:22;19.80;78.40
2539;DHT22;1280;49.760;9.664;2023-09-19T02:20:53;19.80;78.50
2539;DHT22;1280;49.760;9.664;2023-09-19T02:23:21;19.80;78.50
2539;DHT22;1280;49.760;9.664;2023-09-19T02:25:52;19.80;78.50
2539;DHT22;1280;49.760;9.664;2023-09-19T02:28:21;19.80;78.60
2539;DHT22;1280;49.760;9.664;2023-09-19T02:30:50;19.80;78.60
2539;DHT22;1280;49.760;9.664;2023-09-19T02:33:18;19.90;78.60
2539;DHT22;1280;49.760;9.664;2023-09-19T02:35:47;19.90;78.70
2539;DHT22;1280;49.760;9.664;2023-09-19T02:38:16;19.80;78.70
2539;DHT22;1280;49.760;9.664;2023-09-19T02:40:51;19.80;78.80
2539;DHT22;1280;49.760;9.664;2023-09-19T02:43:19;19.80;79.00
2539;DHT22;1280;49.760;9.664;2023-09-19T02:45:47;19.80;79.00
2539;DHT22;1280;49.760;9.664;2023-09-19T02:48:16;19.80;79.10
2539;DHT22;1280;49.760;9.664;2023-09-19T02:50:49;19.90;79.20
2539;DHT22;1280;49.760;9.664;2023-09-19T02:53:17;19.80;79.30
2539;DHT22;1280;49.760;9.664;2023-09-19T02:55:46;19.80;79.50
2539;DHT22;1280;49.760;9.664;2023-09-19T02:58:15;19.80;79.60
2539;DHT22;1280;49.760;9.664;2023-09-19T03:00:46;19.80;79.80
2539;DHT22;1280;49.760;9.664;2023-09-19T03:03:15;19.80;79.80
2539;DHT22;1280;49.760;9.664;2023-09-19T03:05:44;19.80;79.90
2539;DHT22;1280;49.760;9.664;2023-09-19T03:08:16;19.80;80.00
2539;DHT22;1280;49.760;9.664;2023-09-19T03:10:47;19.80;80.10
2539;DHT22;1280;49.760;9.664;2023-09-19T03:13:16;19.90;80.10
2539;DHT22;1280;49.760;9.664;2023-09-19T03:15:44;19.80;80.10
2539;DHT22;1280;49.760;9.664;2023-09-19T03:18:15;19.80;80.30
2539;DHT22;1280;49.760;9.664;2023-09-19T03:20:43;19.80;80.30
2539;DHT22;1280;49.760;9.664;2023-09-19T03:23:12;19.80;80.30
2539;DHT22;1280;49.760;9.664;2023-09-19T03:25:41;19.80;80.50
2539;DHT22;1280;49.760;9.664;2023-09-19T03:28:09;19.80;80.60
2539;DHT22;1280;49.760;9.664;2023-09-19T03:30:38;19.80;80.60
2539;DHT22;1280;49.760;9.664;2023-09-19T03:33:07;19.70;80.70
2539;DHT22;1280;49.760;9.664;2023-09-19T03:35:39;19.70;80.80
2539;DHT22;1280;49.760;9.664;2023-09-19T03:38:09;19.70;80.90
2539;DHT22;1280;49.760;9.664;2023-09-19T03:40:37;19.70;80.90
2539;DHT22;1280;49.760;9.664;2023-09-19T03:43:06;19.60;80.90
2539;DHT22;1280;49.760;9.664;2023-09-19T03:45:34;19.50;81.10
2539;DHT22;1280;49.760;9.664;2023-09-19T03:48:08;19.50;81.20
2539;DHT22;1280;49.760;9.664;2023-09-19T03:50:36;19.40;81.50
2539;DHT22;1280;49.760;9.664;2023-09-19T03:53:04;19.40;81.50
2539;DHT22;1280;49.760;9.664;2023-09-19T03:55:33;19.40;81.60
2539;DHT22;1280;49.760;9.664;2023-09-19T03:58:03;19.40;81.50
2539;DHT22;1280;49.760;9.664;2023-09-19T04:00:32;19.40;81.50
2539;DHT22;1280;49.760;9.664;2023-09-19T04:03:05;19.40;81.50
2539;DHT22;1280;49.760;9.664;2023-09-19T04:05:35;19.40;81.60
2539;DHT22;1280;49.760;9.664;2023-09-19T04:08:04;19.40;81.50
2539;DHT22;1280;49.760;9.664;2023-09-19T04:10:32;19.30;81.50
2539;DHT22;1280;49.760;9.664;2023-09-19T04:13:00;19.30;81.60
2539;DHT22;1280;49.760;9.664;2023-09-19T04:15:28;19.30;81.60
2539;DHT22;1280;49.760;9.664;2023-09-19T04:17:57;19.20;81.60
2539;DHT22;1280;49.760;9.664;2023-09-19T04:20:27;19.20;81.70
2539;DHT22;1280;49.760;9.664;2023-09-19T04:22:56;19.20;81.70
2539;DHT22;1280;49.760;9.664;2023-09-19T04:25:24;19.20;81.70
2539;DHT22;1280;49.760;9.664;2023-09-19T04:27:54;19.10;81.70
2539;DHT22;1280;49.760;9.664;2023-09-19T04:30:22;19.10;81.70
2539;DHT22;1280;49.760;9.664;2023-09-19T04:32:51;19.10;81.70
2539;DHT22;1280;49.760;9.664;2023-09-19T04:35:21;19.10;81.70
2539;DHT22;1280;49.760;9.664;2023-09-19T04:37:50;19.20;81.70
2539;DHT22;1280;49.760;9.664;2023-09-19T04:40:19;19.10;81.70
2539;DHT22;1280;49.760;9.664;2023-09-19T04:42:53;19.10;81.70
2539;DHT22;1280;49.760;9.664;2023-09-19T04:45:23;19.10;81.70
2539;DHT22;1280;49.760;9.664;2023-09-19T04:47:51;19.10;81.60
2539;DHT22;1280;49.760;9.664;2023-09-19T04:50:22;19.10;81.60
2539;DHT22;1280;49.760;9.664;2023-09-19T04:52:53;19.10;81.50
2539;DHT22;1280;49.760;9.664;2023-09-19T04:55:21;19.10;81.60
2539;DHT22;1280;49.760;9.664;2023-09-19T04:57:50;19.10;81.60
2539;DHT22;1280;49.760;9.664;2023-09-19T05:00:20;19.10;81.50
2539;DHT22;1280;49.760;9.664;2023-09-19T05:02:52;19.00;81.50
2539;DHT22;1280;49.760;9.664;2023-09-19T05:05:22;19.00;81.50
2539;DHT22;1280;49.760;9.664;2023-09-19T05:07:52;19.00;81.50
2539;DHT22;1280;49.760;9.664;2023-09-19T05:10:22;18.90;81.50
2539;DHT22;1280;49.760;9.664;2023-09-19T05:12:53;18.90;81.60
2539;DHT22;1280;49.760;9.664;2023-09-19T05:15:21;18.90;81.60
2539;DHT22;1280;49.760;9.664;2023-09-19T05:17:55;19.00;81.70
2539;DHT22;1280;49.760;9.664;2023-09-19T05:20:25;19.00;81.60
2539;DHT22;1280;49.760;9.664;2023-09-19T05:23:00;19.00;81.60
2539;DHT22;1280;49.760;9.664;2023-09-19T05:25:29;19.00;81.50
2539;DHT22;1280;49.760;9.664;2023-09-19T05:27:57;19.00;81.60
2539;DHT22;1280;49.760;9.664;2023-09-19T05:30:26;19.00;81.50
2539;DHT22;1280;49.760;9.664;2023-09-19T05:32:55;19.00;81.50
2539;DHT22;1280;49.760;9.664;2023-09-19T05:35:25;19.00;81.50
2539;DHT22;1280;49.760;9.664;2023-09-19T05:37:54;19.00;81.50
2539;DHT22;1280;49.760;9.664;2023-09-19T05:40:22;19.10;81.60
2539;DHT22;1280;49.760;9.664;2023-09-19T05:42:51;19.10;81.60
2539;DHT22;1280;49.760;9.664;2023-09-19T05:45:19;19.10;81.60
2539;DHT22;1280;49.760;9.664;2023-09-19T05:47:49;19.10;81.60
2539;DHT22;1280;49.760;9.664;2023-09-19T05:50:18;19.10;81.50
2539;DHT22;1280;49.760;9.664;2023-09-19T05:52:53;19.10;81.50
2539;DHT22;1280;49.760;9.664;2023-09-19T05:55:23;19.20;81.40
2539;DHT22;1280;49.760;9.664;2023-09-19T05:57:52;19.20;81.30
2539;DHT22;1280;49.760;9.664;2023-09-19T06:00:21;19.20;81.30
2539;DHT22;1280;49.760;9.664;2023-09-19T06:02:51;19.20;81.20
2539;DHT22;1280;49.760;9.664;2023-09-19T06:05:20;19.20;81.20
2539;DHT22;1280;49.760;9.664;2023-09-19T06:07:48;19.20;81.20
2539;DHT22;1280;49.760;9.664;2023-09-19T06:10:20;19.30;81.10
2539;DHT22;1280;49.760;9.664;2023-09-19T06:12:49;19.30;81.00
2539;DHT22;1280;49.760;9.664;2023-09-19T06:15:17;19.30;81.00
2539;DHT22;1280;49.760;9.664;2023-09-19T06:17:48;19.30;80.90
2539;DHT22;1280;49.760;9.664;2023-09-19T06:20:17;19.30;80.90
2539;DHT22;1280;49.760;9.664;2023-09-19T06:22:48;19.30;80.80
2539;DHT22;1280;49.760;9.664;2023-09-19T06:25:16;19.30;80.80
2539;DHT22;1280;49.760;9.664;2023-09-19T06:27:49;19.30;80.70
2539;DHT22;1280;49.760;9.664;2023-09-19T06:30:19;19.30;80.70
2539;DHT22;1280;49.760;9.664;2023-09-19T06:32:48;19.30;80.80
2539;DHT22;1280;49.760;9.664;2023-09-19T06:35:16;19.20;80.70
2539;DHT22;1280;49.760;9.664;2023-09-19T06:37:45;19.20;80.80
2539;DHT22;1280;49.760;9.664;2023-09-19T06:40:13;19.20;80.70
2539;DHT22;1280;49.760;9.664;2023-09-19T06:42:43;19.20;80.70
2539;DHT22;1280;49.760;9.664;2023-09-19T06:45:14;19.20;80.60
2539;DHT22;1280;49.760;9.664;2023-09-19T06:47:45;19.20;80.50
2539;DHT22;1280;49.760;9.664;2023-09-19T06:50:16;19.20;80.50
2539;DHT22;1280;49.760;9.664;2023-09-19T06:52:46;19.20;80.50
2539;DHT22;1280;49.760;9.664;2023-09-19T06:55:17;19.20;80.50
2539;DHT22;1280;49.760;9.664;2023-09-19T06:57:47;19.20;80.40
2539;DHT22;1280;49.760;9.664;2023-09-19T07:00:17;19.30;80.30
2539;DHT22;1280;49.760;9.664;2023-09-19T07:02:55;19.30;80.20
2539;DHT22;1280;49.760;9.664;2023-09-19T07:05:23;19.40;80.10
2539;DHT22;1280;49.760;9.664;2023-09-19T07:07:51;19.40;80.00
2539;DHT22;1280;49.760;9.664;2023-09-19T07:10:21;19.40;79.90
2539;DHT22;1280;49.760;9.664;2023-09-19T07:12:55;19.40;79.80
2539;DHT22;1280;49.760;9.664;2023-09-19T07:15:25;19.50;79.60
2539;DHT22;1280;49.760;9.664;2023-09-19T07:17:53;19.50;79.60
2539;DHT22;1280;49.760;9.664;2023-09-19T07:20:24;19.50;79.50
2539;DHT22;1280;49.760;9.664;2023-09-19T07:22:53;19.50;79.40
2539;DHT22;1280;49.760;9.664;2023-09-19T07:25:22;19.50;79.30
2539;DHT22;1280;49.760;9.664;2023-09-19T07:27:51;19.50;79.20
2539;DHT22;1280;49.760;9.664;2023-09-19T07:30:21;19.60;79.20
2539;DHT22;1280;49.760;9.664;2023-09-19T07:32:51;19.60;79.20
2539;DHT22;1280;49.760;9.664;2023-09-19T07:35:20;19.60;79.10
2539;DHT22;1280;49.760;9.664;2023-09-19T07:37:48;19.60;79.10
2539;DHT22;1280;49.760;9.664;2023-09-19T07:40:19;19.70;79.00
2539;DHT22;1280;49.760;9.664;2023-09-19T07:42:47;19.70;78.80
2539;DHT22;1280;49.760;9.664;2023-09-19T07:45:17;19.70;78.70
2539;DHT22;1280;49.760;9.664;2023-09-19T07:47:45;19.70;78.70
2539;DHT22;1280;49.760;9.664;2023-09-19T07:50:16;19.70;78.50
2539;DHT22;1280;49.760;9.664;2023-09-19T07:52:45;19.70;78.40
2539;DHT22;1280;49.760;9.664;2023-09-19T07:55:13;19.70;78.30
2539;DHT22;1280;49.760;9.664;2023-09-19T07:57:43;19.70;78.20
2539;DHT22;1280;49.760;9.664;2023-09-19T08:00:13;19.70;78.20
2539;DHT22;1280;49.760;9.664;2023-09-19T08:02:42;19.70;78.20
2539;DHT22;1280;49.760;9.664;2023-09-19T08:05:12;19.70;78.10
2539;DHT22;1280;49.760;9.664;2023-09-19T08:07:45;19.60;78.00
2539;DHT22;1280;49.760;9.664;2023-09-19T08:10:16;19.60;78.00
2539;DHT22;1280;49.760;9.664;2023-09-19T08:12:47;19.70;78.00
2539;DHT22;1280;49.760;9.664;2023-09-19T08:15:17;19.70;78.00
2539;DHT22;1280;49.760;9.664;2023-09-19T08:17:47;19.70;77.90
2539;DHT22;1280;49.760;9.664;2023-09-19T08:20:16;19.70;77.70
2539;DHT22;1280;49.760;9.664;2023-09-19T08:22:48;19.80;77.60
2539;DHT22;1280;49.760;9.664;2023-09-19T08:25:19;19.80;77.60
2539;DHT22;1280;49.760;9.664;2023-09-19T08:27:48;19.90;77.60
2539;DHT22;1280;49.760;9.664;2023-09-19T08:30:19;19.90;77.40
2539;DHT22;1280;49.760;9.664;2023-09-19T08:32:51;20.00;77.30
2539;DHT22;1280;49.760;9.664;2023-09-19T08:35:25;20.00;77.10
2539;DHT22;1280;49.760;9.664;2023-09-19T08:37:55;20.00;77.10
2539;DHT22;1280;49.760;9.664;2023-09-19T08:40:24;20.10;76.80
2539;DHT22;1280;49.760;9.664;2023-09-19T08:42:57;20.10;76.60
2539;DHT22;1280;49.760;9.664;2023-09-19T08:45:26;20.10;76.50
2539;DHT22;1280;49.760;9.664;2023-09-19T08:48:03;20.10;76.40
2539;DHT22;1280;49.760;9.664;2023-09-19T08:50:41;20.00;76.00
2539;DHT22;1280;49.760;9.664;2023-09-19T08:53:17;20.00;75.80
2539;DHT22;1280;49.760;9.664;2023-09-19T08:55:49;20.00;75.60
2539;DHT22;1280;49.760;9.664;2023-09-19T08:58:21;20.00;75.20
2539;DHT22;1280;49.760;9.664;2023-09-19T09:00:53;20.00;75.20
2539;DHT22;1280;49.760;9.664;2023-09-19T09:03:22;20.00;75.10
2539;DHT22;1280;49.760;9.664;2023-09-19T09:05:51;20.00;74.80
2539;DHT22;1280;49.760;9.664;2023-09-19T09:08:21;20.10;74.80
2539;DHT22;1280;49.760;9.664;2023-09-19T09:10:50;20.10;74.70
2539;DHT22;1280;49.760;9.664;2023-09-19T09:13:18;20.10;74.50
2539;DHT22;1280;49.760;9.664;2023-09-19T09:15:48;20.10;74.30
2539;DHT22;1280;49.760;9.664;2023-09-19T09:18:17;20.10;74.00
2539;DHT22;1280;49.760;9.664;2023-09-19T09:20:45;20.10;73.90
2539;DHT22;1280;49.760;9.664;2023-09-19T09:23:14;20.10;73.80
2539;DHT22;1280;49.760;9.664;2023-09-19T09:25:51;20.10;73.80
2539;DHT22;1280;49.760;9.664;2023-09-19T09:28:24;20.10;73.80
2539;DHT22;1280;49.760;9.664;2023-09-19T09:30:54;20.10;73.80
2539;DHT22;1280;49.760;9.664;2023-09-19T09:33:23;20.20;73.80
2539;DHT22;1280;49.760;9.664;2023-09-19T09:35:53;20.20;73.50
2539;DHT22;1280;49.760;9.664;2023-09-19T09:38:25;20.30;73.30
2539;DHT22;1280;49.760;9.664;2023-09-19T09:40:56;20.30;73.20
2539;DHT22;1280;49.760;9.664;2023-09-19T09:43:32;20.20;72.90
2539;DHT22;1280;49.760;9.664;2023-09-19T09:46:21;20.20;72.70
2539;DHT22;1280;49.760;9.664;2023-09-19T09:49:07;20.20;72.60
2539;DHT22;1280;49.760;9.664;2023-09-19T09:52:02;20.20;72.50
2539;DHT22;1280;49.760;9.664;2023-09-19T09:54:37;20.20;72.20
2539;DHT22;1280;49.760;9.664;2023-09-19T09:57:08;20.20;72.00
2539;DHT22;1280;49.760;9.664;2023-09-19T09:59:45;20.20;71.80
2539;DHT22;1280;49.760;9.664;2023-09-19T10:02:14;20.20;71.70
2539;DHT22;1280;49.760;9.664;2023-09-19T10:04:47;20.20;71.50
2539;DHT22;1280;49.760;9.664;2023-09-19T10:07:41;20.20;71.30
2539;DHT22;1280;49.760;9.664;2023-09-19T10:10:29;20.20;70.70
2539;DHT22;1280;49.760;9.664;2023-09-19T10:13:07;20.20;70.40
2539;DHT22;1280;49.760;9.664;2023-09-19T10:15:39;20.20;70.40
2539;DHT22;1280;49.760;9.664;2023-09-19T10:18:11;20.20;70.10
2539;DHT22;1280;49.760;9.664;2023-09-19T10:20:45;20.10;70.00
2539;DHT22;1280;49.760;9.664;2023-09-19T10:23:18;20.20;70.10
2539;DHT22;1280;49.760;9.664;2023-09-19T10:25:50;20.10;70.00
2539;DHT22;1280;49.760;9.664;2023-09-19T10:28:23;20.20;70.00
2539;DHT22;1280;49.760;9.664;2023-09-19T10:30:56;20.20;69.70
2539;DHT22;1280;49.760;9.664;2023-09-19T10:33:25;20.10;69.70
2539;DHT22;1280;49.760;9.664;2023-09-19T10:35:54;20.10;69.60
2539;DHT22;1280;49.760;9.664;2023-09-19T10:38:25;20.20;69.70
2539;DHT22;1280;49.760;9.664;2023-09-19T10:40:56;20.20;69.40
2539;DHT22;1280;49.760;9.664;2023-09-19T10:43:31;20.20;69.40
2539;DHT22;1280;49.760;9.664;2023-09-19T10:46:05;20.30;69.20
2539;DHT22;1280;49.760;9.664;2023-09-19T10:48:36;20.30;69.00
2539;DHT22;1280;49.760;9.664;2023-09-19T10:51:08;20.30;68.90
2539;DHT22;1280;49.760;9.664;2023-09-19T10:53:46;20.30;68.70
2539;DHT22;1280;49.760;9.664;2023-09-19T10:56:21;20.30;68.50
2539;DHT22;1280;49.760;9.664;2023-09-19T10:59:05;20.30;68.50
2539;DHT22;1280;49.760;9.664;2023-09-19T11:01:43;20.40;68.40
2539;DHT22;1280;49.760;9.664;2023-09-19T11:04:26;20.40;68.50
2539;DHT22;1280;49.760;9.664;2023-09-19T11:07:02;20.40;68.50
2539;DHT22;1280;49.760;9.664;2023-09-19T11:09:48;20.40;68.50
2539;DHT22;1280;49.760;9.664;2023-09-19T11:12:48;20.50;68.50
2539;DHT22;1280;49.760;9.664;2023-09-19T11:18:55;20.60;68.60
2539;DHT22;1280;49.760;9.664;2023-09-19T11:21:52;20.70;68.70
2539;DHT22;1280;49.760;9.664;2023-09-19T11:24:28;20.80;68.20
2539;DHT22;1280;49.760;9.664;2023-09-19T11:27:12;20.70;67.80
2539;DHT22;1280;49.760;9.664;2023-09-19T11:29:41;20.70;67.60
2539;DHT22;1280;49.760;9.664;2023-09-19T11:32:09;20.70;67.60
2539;DHT22;1280;49.760;9.664;2023-09-19T11:34:46;20.70;67.40
2539;DHT22;1280;49.760;9.664;2023-09-19T11:40:38;20.80;67.00
2539;DHT22;1280;49.760;9.664;2023-09-19T11:43:29;20.80;67.10
2539;DHT22;1280;49.760;9.664;2023-09-19T11:46:06;20.90;66.80
2539;DHT22;1280;49.760;9.664;2023-09-19T11:48:35;20.90;66.70
2539;DHT22;1280;49.760;9.664;2023-09-19T11:51:17;20.80;66.60
2539;DHT22;1280;49.760;9.664;2023-09-19T11:53:54;20.90;66.40
2539;DHT22;1280;49.760;9.664;2023-09-19T11:56:24;20.90;66.30
2539;DHT22;1280;49.760;9.664;2023-09-19T11:58:56;20.90;66.20
2539;DHT22;1280;49.760;9.664;2023-09-19T12:01:33;21.00;66.20
2539;DHT22;1280;49.760;9.664;2023-09-19T12:04:02;21.00;66.00
2539;DHT22;1280;49.760;9.664;2023-09-19T12:06:33;21.00;66.10
2539;DHT22;1280;49.760;9.664;2023-09-19T12:09:03;21.00;66.00
2539;DHT22;1280;49.760;9.664;2023-09-19T12:11:41;21.10;66.00
2539;DHT22;1280;49.760;9.664;2023-09-19T12:14:11;21.10;65.90
2539;DHT22;1280;49.760;9.664;2023-09-19T12:16:51;21.10;66.00
2539;DHT22;1280;49.760;9.664;2023-09-19T12:19:23;21.20;66.10
2539;DHT22;1280;49.760;9.664;2023-09-19T12:21:56;21.20;66.10
2539;DHT22;1280;49.760;9.664;2023-09-19T12:24:27;21.30;66.20
2539;DHT22;1280;49.760;9.664;2023-09-19T12:27:01;21.30;66.20
2539;DHT22;1280;49.760;9.664;2023-09-19T12:29:32;21.30;66.20
2539;DHT22;1280;49.760;9.664;2023-09-19T12:32:09;21.30;66.10
2539;DHT22;1280;49.760;9.664;2023-09-19T12:34:37;21.30;66.00
2539;DHT22;1280;49.760;9.664;2023-09-19T12:37:12;21.40;66.10
2539;DHT22;1280;49.760;9.664;2023-09-19T12:39:43;21.40;65.90
2539;DHT22;1280;49.760;9.664;2023-09-19T12:42:16;21.30;65.80
2539;DHT22;1280;49.760;9.664;2023-09-19T12:44:46;21.40;65.90
2539;DHT22;1280;49.760;9.664;2023-09-19T12:47:15;21.40;65.90
2539;DHT22;1280;49.760;9.664;2023-09-19T12:50:06;21.50;65.70
2539;DHT22;1280;49.760;9.664;2023-09-19T12:52:37;21.50;65.10
2539;DHT22;1280;49.760;9.664;2023-09-19T12:55:05;21.50;65.10
2539;DHT22;1280;49.760;9.664;2023-09-19T12:57:34;21.50;64.60
2539;DHT22;1280;49.760;9.664;2023-09-19T13:00:02;21.50;64.20
2539;DHT22;1280;49.760;9.664;2023-09-19T13:02:32;21.50;64.20
2539;DHT22;1280;49.760;9.664;2023-09-19T13:05:00;21.50;64.00
2539;DHT22;1280;49.760;9.664;2023-09-19T13:07:41;21.50;64.10
2539;DHT22;1280;49.760;9.664;2023-09-19T13:10:13;21.50;63.90
2539;DHT22;1280;49.760;9.664;2023-09-19T13:12:43;21.50;63.90
2539;DHT22;1280;49.760;9.664;2023-09-19T13:15:15;21.60;63.80
2539;DHT22;1280;49.760;9.664;2023-09-19T13:17:47;21.60;63.80
2539;DHT22;1280;49.760;9.664;2023-09-19T13:20:23;21.50;63.70
2539;DHT22;1280;49.760;9.664;2023-09-19T13:22:55;21.60;63.70
2539;DHT22;1280;49.760;9.664;2023-09-19T13:25:27;21.60;63.60
2539;DHT22;1280;49.760;9.664;2023-09-19T13:27:57;21.60;63.50
2539;DHT22;1280;49.760;9.664;2023-09-19T13:30:27;21.60;63.40
2539;DHT22;1280;49.760;9.664;2023-09-19T13:33:05;21.60;63.40
2539;DHT22;1280;49.760;9.664;2023-09-19T13:35:34;21.70;63.50
2539;DHT22;1280;49.760;9.664;2023-09-19T13:38:03;21.70;63.50
2539;DHT22;1280;49.760;9.664;2023-09-19T13:40:33;21.70;63.40
2539;DHT22;1280;49.760;9.664;2023-09-19T13:43:02;21.70;63.40
2539;DHT22;1280;49.760;9.664;2023-09-19T13:45:30;21.80;63.10
2539;DHT22;1280;49.760;9.664;2023-09-19T13:47:58;21.80;63.10
2539;DHT22;1280;49.760;9.664;2023-09-19T13:50:27;21.80;63.10
2539;DHT22;1280;49.760;9.664;2023-09-19T13:52:55;21.80;63.10
2539;DHT22;1280;49.760;9.664;2023-09-19T13:55:26;21.80;63.10
2539;DHT22;1280;49.760;9.664;2023-09-19T13:57:54;21.90;63.20
2539;DHT22;1280;49.760;9.664;2023-09-19T14:00:23;21.90;63.30
2539;DHT22;1280;49.760;9.664;2023-09-19T14:02:51;21.90;63.20
2539;DHT22;1280;49.760;9.664;2023-09-19T14:05:20;22.00;63.30
2539;DHT22;1280;49.760;9.664;2023-09-19T14:07:49;22.00;63.20
2539;DHT22;1280;49.760;9.664;2023-09-19T14:10:17;22.00;63.10
2539;DHT22;1280;49.760;9.664;2023-09-19T14:12:47;22.00;63.00
2539;DHT22;1280;49.760;9.664;2023-09-19T14:15:15;22.00;63.00
2539;DHT22;1280;49.760;9.664;2023-09-19T14:17:43;21.90;63.00
2539;DHT22;1280;49.760;9.664;2023-09-19T14:20:12;21.90;62.90
2539;DHT22;1280;49.760;9.664;2023-09-19T14:22:42;21.90;62.90
2539;DHT22;1280;49.760;9.664;2023-09-19T14:25:10;21.90;63.00
2539;DHT22;1280;49.760;9.664;2023-09-19T14:27:38;21.90;63.00
2539;DHT22;1280;49.760;9.664;2023-09-19T14:30:09;22.00;63.10
2539;DHT22;1280;49.760;9.664;2023-09-19T14:32:37;22.00;63.00
2539;DHT22;1280;49.760;9.664;2023-09-19T14:35:07;22.00;62.70
2539;DHT22;1280;49.760;9.664;2023-09-19T14:37:38;22.00;62.60
2539;DHT22;1280;49.760;9.664;2023-09-19T14:40:08;22.00;62.80
2539;DHT22;1280;49.760;9.664;2023-09-19T14:42:39;22.00;62.70
2539;DHT22;1280;49.760;9.664;2023-09-19T14:45:10;22.10;62.60
2539;DHT22;1280;49.760;9.664;2023-09-19T14:47:38;22.00;62.50
2539;DHT22;1280;49.760;9.664;2023-09-19T14:50:07;22.00;62.50
2539;DHT22;1280;49.760;9.664;2023-09-19T14:52:35;22.00;62.30
2539;DHT22;1280;49.760;9.664;2023-09-19T14:55:04;22.00;62.30
2539;DHT22;1280;49.760;9.664;2023-09-19T14:57:33;22.00;62.30
2539;DHT22;1280;49.760;9.664;2023-09-19T15:00:01;22.00;62.40
2539;DHT22;1280;49.760;9.664;2023-09-19T15:02:33;22.00;62.50
2539;DHT22;1280;49.760;9.664;2023-09-19T15:05:03;22.10;62.50
2539;DHT22;1280;49.760;9.664;2023-09-19T15:07:34;22.10;62.60
2539;DHT22;1280;49.760;9.664;2023-09-19T15:10:04;22.10;62.40
2539;DHT22;1280;49.760;9.664;2023-09-19T15:12:33;22.00;62.40
2539;DHT22;1280;49.760;9.664;2023-09-19T15:15:02;22.00;62.40
2539;DHT22;1280;49.760;9.664;2023-09-19T15:17:33;22.00;62.50
2539;DHT22;1280;49.760;9.664;2023-09-19T15:20:02;22.00;62.50
2539;DHT22;1280;49.760;9.664;2023-09-19T15:22:34;22.00;62.50
2539;DHT22;1280;49.760;9.664;2023-09-19T15:25:03;21.90;62.60
2539;DHT22;1280;49.760;9.664;2023-09-19T15:27:32;21.90;62.60
2539;DHT22;1280;49.760;9.664;2023-09-19T15:30:04;21.90;62.60
2539;DHT22;1280;49.760;9.664;2023-09-19T15:32:33;21.90;62.80
2539;DHT22;1280;49.760;9.664;2023-09-19T15:35:02;21.90;62.90
2539;DHT22;1280;49.760;9.664;2023-09-19T15:37:30;21.90;62.90
2539;DHT22;1280;49.760;9.664;2023-09-19T15:39:58;21.90;62.90
2539;DHT22;1280;49.760;9.664;2023-09-19T15:42:26;21.90;63.00
2539;DHT22;1280;49.760;9.664;2023-09-19T15:44:54;21.90;63.10
2539;DHT22;1280;49.760;9.664;2023-09-19T15:47:22;21.90;63.10
2539;DHT22;1280;49.760;9.664;2023-09-19T15:49:51;21.90;63.20
2539;DHT22;1280;49.760;9.664;2023-09-19T15:52:20;21.90;63.30
2539;DHT22;1280;49.760;9.664;2023-09-19T15:54:48;21.90;63.30
2539;DHT22;1280;49.760;9.664;2023-09-19T15:57:18;21.90;63.40
2539;DHT22;1280;49.760;9.664;2023-09-19T15:59:48;21.90;63.50
2539;DHT22;1280;49.760;9.664;2023-09-19T16:02:17;21.80;63.60
2539;DHT22;1280;49.760;9.664;2023-09-19T16:04:47;21.80;63.70
2539;DHT22;1280;49.760;9.664;2023-09-19T16:07:16;21.80;63.90
2539;DHT22;1280;49.760;9.664;2023-09-19T16:09:47;21.80;63.90
2539;DHT22;1280;49.760;9.664;2023-09-19T16:12:16;21.80;63.90
2539;DHT22;1280;49.760;9.664;2023-09-19T16:14:45;21.80;64.10
2539;DHT22;1280;49.760;9.664;2023-09-19T16:17:14;21.70;64.20
2539;DHT22;1280;49.760;9.664;2023-09-19T16:19:43;21.70;64.30
2539;DHT22;1280;49.760;9.664;2023-09-19T16:22:11;21.70;64.30
2539;DHT22;1280;49.760;9.664;2023-09-19T16:24:41;21.70;64.30
2539;DHT22;1280;49.760;9.664;2023-09-19T16:27:10;21.60;64.20
2539;DHT22;1280;49.760;9.664;2023-09-19T16:29:39;21.60;64.40
2539;DHT22;1280;49.760;9.664;2023-09-19T16:32:07;21.60;64.40
2539;DHT22;1280;49.760;9.664;2023-09-19T16:34:36;21.50;64.50